Time;durP1;ratioP1;P1;durP2;ratioP2;P2;SDS_P1;SDS_P2;PMS_P1;PMS_P2;Temp;Humidity;BMP_temperature;BMP_pressure;BME280_temperature;BME280_humidity;BME280_pressure;Samples;Min_cycle;Max_cycle;Signal;HPM_P1;HPM_P2
2022/01/28 00:01:12;;;;;;;10.77;5.40;;;;;;;1.71;89.34;95014.31;5010520;28;20050;-60
2022/01/28 00:03:40;;;;;;;16.38;7.50;;;;;;;1.65;89.42;95011.06;5011182;28;20044;-60
2022/01/28 00:06:07;;;;;;;13.73;6.43;;;;;;;1.56;90.01;95021.13;5010189;28;20046;-58
2022/01/28 00:08:34;;;;;;;14.70;6.30;;;;;;;1.65;90.08;95015.66;5014418;28;20034;-61
2022/01/28 00:11:01;;;;;;;9.00;3.97;;;;;;;1.52;90.44;95018.28;5031210;28;20063;-60
2022/01/28 00:13:38;;;;;;;7.07;3.53;;;;;;;1.49;90.93;95034.38;5030575;28;20041;-60
2022/01/28 00:19:01;;;;;;;5.47;2.50;;;;;;;1.56;90.39;95038.16;5030747;28;20159;-61
2022/01/28 00:40:27;;;;;;;8.77;5.05;;;;;;;1.17;90.84;95037.47;5030258;28;20045;-60
2022/01/28 00:42:54;;;;;;;8.48;4.00;;;;;;;1.23;90.55;95032.69;5030837;28;20049;-60
2022/01/28 00:45:21;;;;;;;5.80;2.90;;;;;;;1.20;90.04;95039.50;5029707;28;20057;-60
2022/01/28 00:47:48;;;;;;;4.22;2.30;;;;;;;1.33;89.02;95037.69;5029991;28;20033;-60
2022/01/28 00:50:15;;;;;;;4.30;2.13;;;;;;;1.34;89.06;95044.69;5030495;28;20490;-60
2022/01/28 00:52:42;;;;;;;5.13;2.78;;;;;;;1.25;89.05;95051.25;5018371;28;20034;-60
2022/01/28 00:55:09;;;;;;;7.60;4.00;;;;;;;1.39;88.66;95046.41;5006784;28;20056;-60
2022/01/28 00:57:36;;;;;;;7.10;3.77;;;;;;;1.18;89.60;95051.78;5010122;28;20052;-60
2022/01/28 01:00:06;;;;;;;5.80;3.55;;;;;;;1.00;89.78;95053.78;5010750;28;20058;-60
2022/01/28 01:02:33;;;;;;;6.80;3.28;;;;;;;1.24;89.51;95065.91;5011037;28;20042;-60
2022/01/28 01:05:00;;;;;;;7.18;3.75;;;;;;;1.14;89.04;95050.84;5009919;28;20538;-59
2022/01/28 01:07:27;;;;;;;6.20;3.38;;;;;;;1.04;89.37;95057.44;5009859;28;20033;-59
2022/01/28 01:09:54;;;;;;;7.13;3.37;;;;;;;1.06;89.45;95062.50;5023623;28;20071;-59
2022/01/28 01:12:23;;;;;;;6.70;3.50;;;;;;;1.19;88.69;95073.09;5029435;28;20042;-59
2022/01/28 01:14:50;;;;;;;7.45;3.70;;;;;;;1.26;88.59;95069.09;5030818;28;20111;-60
2022/01/28 01:17:29;;;;;;;7.38;3.58;;;;;;;1.32;87.71;95079.38;5029450;28;20899;-59
2022/01/28 01:20:12;;;;;;;7.05;3.85;;;;;;;1.07;89.34;95088.44;5030272;28;20068;-59
2022/01/28 01:22:40;;;;;;;7.63;4.07;;;;;;;0.95;89.23;95100.72;5029514;28;20039;-61
2022/01/28 01:25:21;;;;;;;9.20;4.50;;;;;;;0.87;90.51;95103.47;5028386;28;20115;-60
2022/01/28 01:27:53;;;;;;;9.43;4.65;;;;;;;0.83;90.72;95106.03;5030792;28;20048;-60
2022/01/28 01:30:20;;;;;;;8.55;4.35;;;;;;;0.86;90.96;95097.25;5029211;28;20913;-59
2022/01/28 01:32:48;;;;;;;9.73;4.70;;;;;;;0.89;90.15;95096.63;5029112;28;20087;-60
2022/01/28 01:35:15;;;;;;;8.20;4.30;;;;;;;0.76;90.42;95103.03;5028519;28;20049;-59
2022/01/28 01:37:41;;;;;;;10.10;5.00;;;;;;;0.66;91.60;95100.69;5030792;28;20068;-60
2022/01/28 01:40:09;;;;;;;9.07;4.68;;;;;;;0.77;91.34;95099.22;5029653;28;20064;-60
2022/01/28 01:53:24;;;;;;;8.43;4.30;;;;;;;0.92;88.65;95081.66;5014160;28;20696;-61
2022/01/28 01:55:51;;;;;;;7.57;3.85;;;;;;;0.74;88.98;95084.44;5010335;28;20044;-59
2022/01/28 01:58:24;;;;;;;10.73;4.15;;;;;;;0.79;89.02;95091.59;5009061;28;20917;-59
2022/01/28 02:00:51;;;;;;;8.97;4.87;;;;;;;0.74;88.83;95084.44;5010221;28;20046;-60
2022/01/28 02:03:18;;;;;;;8.18;4.25;;;;;;;0.72;89.42;95088.56;5008990;28;20566;-60
2022/01/28 02:05:45;;;;;;;9.80;4.35;;;;;;;0.62;89.43;95092.41;5010115;28;20071;-60
2022/01/28 02:08:12;;;;;;;7.97;4.40;;;;;;;0.69;89.44;95095.44;5009281;28;20057;-59
2022/01/28 02:10:38;;;;;;;7.97;4.28;;;;;;;0.72;89.03;95102.88;5027592;28;20037;-59
2022/01/28 02:13:05;;;;;;;10.13;4.80;;;;;;;0.70;89.33;95113.22;5028831;28;20106;-58
2022/01/28 02:15:32;;;;;;;8.30;4.00;;;;;;;0.66;90.21;95109.56;5029070;28;20051;-60
2022/01/28 02:18:00;;;;;;;9.32;4.75;;;;;;;0.75;89.37;95107.66;5027941;28;20076;-59
2022/01/28 02:20:33;;;;;;;9.75;4.30;;;;;;;0.81;88.96;95116.38;5028215;28;20049;-59
2022/01/28 02:23:00;;;;;;;8.75;4.35;;;;;;;0.91;88.71;95124.13;5029121;28;20499;-58
2022/01/28 02:25:30;;;;;;;10.33;5.60;;;;;;;0.79;88.99;95121.31;5029484;28;20045;-60
2022/01/28 02:28:01;;;;;;;9.93;4.80;;;;;;;0.83;88.82;95124.16;5027782;28;20046;-60
2022/01/28 02:30:28;;;;;;;12.10;5.82;;;;;;;0.81;88.92;95116.38;5029248;28;20042;-59
2022/01/28 02:33:09;;;;;;;13.80;5.50;;;;;;;0.55;90.80;95122.63;5028766;28;20490;-59
2022/01/28 02:35:38;;;;;;;10.57;5.40;;;;;;;0.71;89.97;95133.72;5029551;28;20124;-60
2022/01/28 02:38:07;;;;;;;11.70;6.30;;;;;;;0.63;90.87;95128.34;5028633;28;20114;-59
2022/01/28 02:40:34;;;;;;;12.00;5.93;;;;;;;0.62;90.55;95135.66;5029258;28;20050;-59
2022/01/28 02:45:44;;;;;;;12.82;5.95;;;;;;;0.52;91.63;95138.69;5027875;28;20058;-60
2022/01/28 02:48:19;;;;;;;15.00;6.13;;;;;;;0.69;91.23;95140.56;5028182;28;20057;-59
2022/01/28 02:51:32;;;;;;;12.63;5.97;;;;;;;0.51;91.81;95131.72;5029427;28;20510;-59
2022/01/28 02:59:04;;;;;;;14.57;6.30;;;;;;;0.52;92.67;95150.28;5028095;28;20063;-63
2022/01/28 03:01:31;;;;;;;11.80;5.93;;;;;;;0.68;91.82;95144.38;5028720;28;20042;-60
2022/01/28 03:04:02;;;;;;;13.40;6.17;;;;;;;0.61;91.38;95141.38;5027278;28;20550;-59
2022/01/28 03:06:28;;;;;;;12.18;5.88;;;;;;;0.62;91.68;95143.75;5028923;28;20049;-59
2022/01/28 03:09:12;;;;;;;14.40;5.53;;;;;;;0.76;90.72;95155.16;5023115;28;20555;-59
2022/01/28 03:17:08;;;;;;;10.77;5.33;;;;;;;0.85;89.29;95152.44;5003587;28;20073;-59
2022/01/28 03:19:49;;;;;;;10.45;4.93;;;;;;;0.90;88.47;95159.56;5002432;28;20616;-61
2022/01/28 03:22:16;;;;;;;10.77;5.30;;;;;;;1.00;88.09;95167.31;5008368;28;20041;-59
2022/01/28 03:24:46;;;;;;;10.88;4.82;;;;;;;1.03;87.75;95161.28;5008420;28;20049;-59
2022/01/28 03:27:21;;;;;;;11.60;5.07;;;;;;;0.94;87.49;95163.22;5008137;28;20048;-59
2022/01/28 03:29:48;;;;;;;10.03;4.77;;;;;;;0.78;87.81;95157.53;5008727;28;20115;-59
2022/01/28 03:32:14;;;;;;;9.93;4.72;;;;;;;0.84;87.44;95156.25;5007803;28;20079;-61
2022/01/28 03:34:41;;;;;;;11.05;5.18;;;;;;;0.97;87.07;95155.25;5008647;28;20046;-60
2022/01/28 03:37:09;;;;;;;9.75;4.80;;;;;;;1.05;86.91;95148.22;5007986;28;20048;-59
2022/01/28 03:39:36;;;;;;;12.63;5.88;;;;;;;0.74;87.31;95157.38;5007479;28;20034;-59
2022/01/28 03:42:04;;;;;;;12.37;5.50;;;;;;;0.94;87.16;95168.63;5005190;28;20051;-59
2022/01/28 03:44:30;;;;;;;14.35;6.13;;;;;;;0.76;87.49;95167.88;5008520;28;20080;-59
2022/01/28 03:46:57;;;;;;;12.10;5.95;;;;;;;0.70;87.71;95172.66;5008101;28;20050;-60
2022/01/28 03:49:24;;;;;;;10.75;5.60;;;;;;;0.66;87.81;95171.72;5008553;28;20045;-59
2022/01/28 03:51:51;;;;;;;11.57;5.97;;;;;;;0.77;87.43;95175.66;5008830;28;20056;-59
2022/01/28 03:54:17;;;;;;;12.07;5.80;;;;;;;0.88;87.04;95172.63;5022522;28;20688;-60
2022/01/28 03:56:44;;;;;;;10.82;5.30;;;;;;;0.93;86.45;95175.16;5007398;28;20046;-59
2022/01/28 03:59:11;;;;;;;10.13;5.38;;;;;;;0.98;86.07;95174.97;5023070;28;20502;-59
2022/01/28 04:01:39;;;;;;;12.60;5.45;;;;;;;0.93;86.25;95175.16;5008135;28;20038;-60
2022/01/28 04:12:25;;;;;;;13.35;5.65;;;;;;;0.94;86.02;95171.31;5027205;28;20177;-59
2022/01/28 04:17:37;;;;;;;11.55;5.95;;;;;;;0.83;85.95;95168.19;5005099;28;20053;-60
2022/01/28 04:20:04;;;;;;;12.17;5.80;;;;;;;1.00;86.15;95170.03;4991913;28;20723;-59
2022/01/28 04:22:30;;;;;;;10.68;5.20;;;;;;;0.96;86.23;95171.78;4969065;28;20058;-60
2022/01/28 04:24:57;;;;;;;12.48;5.53;;;;;;;0.94;86.47;95171.31;4968803;28;20047;-59
2022/01/28 04:27:24;;;;;;;15.68;5.90;;;;;;;0.94;86.32;95169.41;4967724;28;20473;-59
2022/01/28 04:29:52;;;;;;;12.57;5.72;;;;;;;0.79;86.28;95183.47;4967830;28;20041;-61
2022/01/28 04:32:19;;;;;;;12.83;5.60;;;;;;;0.76;86.71;95190.28;4987281;28;20661;-60
2022/01/28 04:34:46;;;;;;;11.23;5.55;;;;;;;0.90;86.13;95187.38;4988407;28;20050;-59
2022/01/28 04:37:22;;;;;;;12.10;5.70;;;;;;;0.71;87.04;95187.75;4987866;28;20042;-61
2022/01/28 04:39:57;;;;;;;16.27;7.38;;;;;;;0.76;86.61;95189.50;4987379;28;20585;-59
2022/01/28 04:47:38;;;;;;;15.13;6.30;;;;;;;1.04;86.14;95191.81;4991328;28;20146;-60
2022/01/28 04:50:14;;;;;;;11.75;5.60;;;;;;;1.01;85.64;95182.44;4991461;28;20049;-61
2022/01/28 04:53:13;;;;;;;15.00;6.20;;;;;;;0.69;86.78;95195.41;4991915;28;20042;-60
2022/01/28 04:56:05;;;;;;;12.85;5.60;;;;;;;0.87;86.50;95190.75;4990646;28;20725;-61
2022/01/28 04:58:48;;;;;;;30.47;13.10;;;;;;;0.91;86.75;95191.69;4989742;28;20607;-60
2022/01/28 05:12:48;;;;;;;13.10;6.67;;;;;;;0.91;86.59;95205.19;5030850;28;20047;-61
2022/01/28 05:28:04;;;;;;;15.13;7.00;;;;;;;0.77;86.97;95245.13;5029782;28;20059;-59
2022/01/28 05:30:31;;;;;;;15.55;7.32;;;;;;;0.59;87.85;95239.75;5030220;28;20049;-59
2022/01/28 05:32:57;;;;;;;15.40;6.95;;;;;;;0.58;88.54;95238.16;5029671;28;20098;-60
2022/01/28 05:35:26;;;;;;;17.17;7.28;;;;;;;0.55;88.20;95244.19;5028664;28;20049;-59
2022/01/28 05:37:52;;;;;;;16.33;6.60;;;;;;;0.81;87.48;95237.19;5029726;28;20051;-57
2022/01/28 05:40:19;;;;;;;15.75;7.45;;;;;;;0.84;86.61;95239.22;5029772;28;20052;-60
2022/01/28 05:42:46;;;;;;;19.67;9.05;;;;;;;0.78;87.03;95239.38;5028766;28;20045;-60
2022/01/28 05:45:13;;;;;;;17.10;7.38;;;;;;;0.63;86.16;95247.22;5029247;28;20495;-63
2022/01/28 05:47:40;;;;;;;16.30;6.82;;;;;;;0.59;86.50;95255.94;5029537;28;20387;-58
2022/01/28 05:50:07;;;;;;;13.90;6.80;;;;;;;0.69;86.16;95245.94;5027976;28;20503;-58
2022/01/28 05:52:34;;;;;;;13.90;6.40;;;;;;;0.74;85.69;95253.88;5028214;28;20056;-59
2022/01/28 05:55:01;;;;;;;14.35;6.13;;;;;;;0.98;85.10;95254.13;5027631;28;20067;-59
2022/01/28 05:57:28;;;;;;;16.80;7.30;;;;;;;0.96;84.73;95255.59;5029338;28;20065;-59
2022/01/28 05:59:54;;;;;;;13.75;6.38;;;;;;;1.04;84.23;95265.56;5029263;28;20055;-60
2022/01/28 06:02:21;;;;;;;15.63;6.67;;;;;;;0.79;85.24;95262.59;5009797;28;20041;-60
2022/01/28 06:04:48;;;;;;;15.68;6.30;;;;;;;0.97;85.19;95257.19;5009823;28;20048;-61
2022/01/28 06:07:15;;;;;;;14.20;6.45;;;;;;;1.11;84.34;95268.59;5008949;28;20050;-60
2022/01/28 06:09:42;;;;;;;12.27;5.82;;;;;;;1.07;84.42;95266.88;5019979;28;20148;-60
2022/01/28 06:12:09;;;;;;;14.02;6.35;;;;;;;1.08;84.36;95266.53;5027859;28;20075;-60
2022/01/28 06:14:36;;;;;;;18.27;7.10;;;;;;;1.12;84.18;95269.38;5029207;28;20410;-60
2022/01/28 06:17:03;;;;;;;15.55;6.45;;;;;;;1.24;83.68;95274.13;5028293;28;20055;-60
2022/01/28 06:19:30;;;;;;;15.82;6.85;;;;;;;1.18;84.13;95277.00;5029059;28;20042;-59
2022/01/28 06:21:57;;;;;;;17.65;7.75;;;;;;;1.14;84.23;95275.25;5028776;28;20041;-60
2022/01/28 06:24:23;;;;;;;15.13;7.60;;;;;;;1.02;85.04;95275.13;5011402;28;20675;-60
2022/01/28 06:26:50;;;;;;;18.77;8.47;;;;;;;1.04;85.02;95284.50;5029274;28;20049;-61
2022/01/28 06:29:17;;;;;;;16.85;7.40;;;;;;;1.00;84.91;95295.16;5027968;28;20340;-59
2022/01/28 06:31:44;;;;;;;20.35;8.35;;;;;;;0.95;85.62;95303.44;5028967;28;20050;-60
2022/01/28 06:34:11;;;;;;;15.07;7.10;;;;;;;1.08;85.37;95300.88;5028519;28;20049;-60
2022/01/28 06:36:37;;;;;;;13.70;6.75;;;;;;;1.02;84.25;95312.97;5028665;28;20086;-60
2022/01/28 06:39:05;;;;;;;13.80;5.90;;;;;;;0.97;83.87;95314.72;5027058;28;20052;-60
2022/01/28 06:41:31;;;;;;;11.77;5.85;;;;;;;0.99;84.46;95333.34;5027292;28;20049;-61
2022/01/28 06:43:58;;;;;;;12.93;5.90;;;;;;;0.90;83.45;95327.91;5028181;28;20063;-60
2022/01/28 06:46:26;;;;;;;11.98;5.60;;;;;;;1.02;83.97;95342.72;5027937;28;20083;-59
2022/01/28 06:48:53;;;;;;;14.32;6.03;;;;;;;1.03;83.16;95347.00;5028502;28;20044;-59
2022/01/28 06:51:19;;;;;;;16.50;6.57;;;;;;;0.98;84.22;95351.44;5028506;28;20041;-60
2022/01/28 06:53:46;;;;;;;16.95;7.40;;;;;;;0.91;84.26;95344.97;5028588;28;20038;-60
2022/01/28 06:56:13;;;;;;;13.98;6.57;;;;;;;1.05;83.89;95344.75;5028290;28;20041;-59
2022/01/28 06:58:40;;;;;;;11.77;5.47;;;;;;;0.96;83.29;95342.06;5028397;28;20102;-59
2022/01/28 07:01:08;;;;;;;14.32;6.35;;;;;;;0.84;84.16;95352.72;5013227;28;20070;-59
2022/01/28 07:03:35;;;;;;;14.57;6.20;;;;;;;0.81;84.42;95359.56;4978148;28;20078;-59
2022/01/28 07:06:02;;;;;;;11.52;5.20;;;;;;;0.75;85.25;95372.44;5008209;28;20059;-60
2022/01/28 07:08:29;;;;;;;13.30;5.68;;;;;;;0.66;85.61;95382.44;5009751;28;20046;-60
2022/01/28 07:10:55;;;;;;;11.68;5.43;;;;;;;0.83;85.47;95375.47;5026536;28;20048;-59
2022/01/28 07:13:22;;;;;;;14.40;6.03;;;;;;;1.00;85.13;95376.25;5028046;28;20045;-60
2022/01/28 07:15:51;;;;;;;14.17;5.77;;;;;;;0.94;84.17;95376.75;5017264;28;20088;-61
2022/01/28 07:18:18;;;;;;;13.27;5.63;;;;;;;0.73;84.56;95374.66;5006927;28;20134;-64
2022/01/28 07:20:45;;;;;;;13.32;5.30;;;;;;;0.76;84.14;95382.13;5008672;28;20053;-59
2022/01/28 07:23:12;;;;;;;13.35;5.10;;;;;;;0.89;83.24;95388.50;5007058;28;20041;-59
2022/01/28 07:25:38;;;;;;;12.05;5.50;;;;;;;0.87;83.59;95384.53;5007033;28;20886;-61
2022/01/28 07:28:05;;;;;;;12.97;6.20;;;;;;;0.90;83.55;95392.00;5007513;28;20359;-61
2022/01/28 07:30:32;;;;;;;10.82;4.93;;;;;;;0.94;82.94;95403.78;5007524;28;20391;-60
2022/01/28 07:33:01;;;;;;;10.70;4.95;;;;;;;1.04;83.02;95397.25;5007493;28;20046;-59
2022/01/28 07:35:27;;;;;;;9.93;5.03;;;;;;;0.99;82.87;95409.81;5008232;28;20124;-61
2022/01/28 07:37:54;;;;;;;11.27;5.40;;;;;;;1.05;82.50;95402.34;5008535;28;20038;-59
2022/01/28 07:40:21;;;;;;;9.30;4.40;;;;;;;1.10;81.95;95393.28;5008600;28;20049;-60
2022/01/28 07:42:48;;;;;;;10.40;5.10;;;;;;;1.18;81.51;95393.25;5007287;28;20509;-59
2022/01/28 07:45:15;;;;;;;11.27;5.05;;;;;;;1.16;81.40;95392.78;5008099;28;20436;-60
2022/01/28 07:47:43;;;;;;;11.75;5.40;;;;;;;1.09;81.57;95389.78;5008154;28;20054;-60
2022/01/28 07:50:11;;;;;;;13.00;5.38;;;;;;;1.07;81.59;95388.53;5008139;28;20453;-59
2022/01/28 07:52:39;;;;;;;12.07;5.00;;;;;;;1.06;81.07;95400.44;5008638;28;20100;-62
2022/01/28 07:55:09;;;;;;;13.27;5.35;;;;;;;1.35;80.39;95389.78;5008313;28;20084;-59
2022/01/28 07:57:36;;;;;;;12.65;5.43;;;;;;;1.59;79.86;95397.38;5007306;28;20169;-61
2022/01/28 08:00:05;;;;;;;11.55;4.90;;;;;;;1.95;78.75;95403.47;5007202;28;20038;-60
2022/01/28 08:02:32;;;;;;;11.80;4.90;;;;;;;2.09;78.51;95414.09;4998918;28;20376;-59
2022/01/28 08:04:59;;;;;;;13.13;5.87;;;;;;;1.97;77.56;95418.28;5008106;28;20041;-59
2022/01/28 08:07:26;;;;;;;13.82;5.70;;;;;;;1.59;78.64;95419.00;5008332;28;20044;-59
2022/01/28 08:09:53;;;;;;;12.93;5.63;;;;;;;2.18;77.61;95421.06;5020813;28;20042;-60
2022/01/28 08:12:21;;;;;;;12.82;5.43;;;;;;;1.80;77.62;95427.25;5026508;28;20047;-59
2022/01/28 08:14:48;;;;;;;10.77;5.30;;;;;;;1.74;78.52;95433.94;5027140;28;20040;-60
2022/01/28 08:17:14;;;;;;;10.57;4.87;;;;;;;1.56;78.21;95430.47;5031310;28;20052;-60
2022/01/28 08:19:41;;;;;;;11.10;5.50;;;;;;;1.94;77.21;95423.56;5031653;28;20058;-59
2022/01/28 08:22:08;;;;;;;9.63;4.88;;;;;;;2.61;75.56;95421.97;5031508;28;20051;-59
2022/01/28 08:24:35;;;;;;;12.65;5.20;;;;;;;4.26;69.99;95436.06;5031551;28;20388;-60
2022/01/28 08:27:02;;;;;;;11.35;5.60;;;;;;;5.97;65.03;95434.19;5031538;28;20156;-61
2022/01/28 08:29:29;;;;;;;11.67;5.63;;;;;;;4.68;67.47;95444.03;5031524;28;20057;-60
2022/01/28 08:31:55;;;;;;;9.65;5.00;;;;;;;4.37;68.23;95439.94;5031220;28;20044;-60
2022/01/28 08:34:22;;;;;;;10.55;5.03;;;;;;;3.63;69.07;95440.88;5031944;28;20044;-64
2022/01/28 08:36:49;;;;;;;10.70;4.63;;;;;;;3.33;70.19;95449.91;5031721;28;20479;-60
2022/01/28 08:39:17;;;;;;;14.45;6.68;;;;;;;2.85;71.81;95443.06;5031039;28;20039;-60
2022/01/28 08:41:43;;;;;;;17.00;8.40;;;;;;;2.92;72.70;95450.69;5030025;28;20047;-60
2022/01/28 08:44:15;;;;;;;13.52;6.47;;;;;;;2.90;72.85;95447.50;5031018;28;20045;-59
2022/01/28 08:46:42;;;;;;;11.10;5.65;;;;;;;2.56;73.80;95452.00;5031115;28;20037;-60
2022/01/28 08:49:09;;;;;;;37.03;9.73;;;;;;;2.28;75.03;95460.56;5031097;28;20045;-60
2022/01/28 08:51:37;;;;;;;21.98;8.13;;;;;;;2.57;74.92;95461.69;5031292;28;20402;-60
2022/01/28 08:54:04;;;;;;;15.60;6.47;;;;;;;2.79;74.30;95460.63;5030756;28;20063;-60
2022/01/28 08:56:31;;;;;;;13.50;5.57;;;;;;;2.86;74.48;95458.22;5030984;28;20050;-60
2022/01/28 08:58:58;;;;;;;12.95;6.00;;;;;;;3.93;71.76;95452.41;5029465;28;20045;-60
2022/01/28 09:01:25;;;;;;;11.75;5.80;;;;;;;3.80;70.99;95449.66;5012723;28;20056;-60
2022/01/28 09:03:52;;;;;;;12.77;6.57;;;;;;;3.41;71.69;95469.97;5003119;28;20498;-60
2022/01/28 09:06:19;;;;;;;11.83;5.90;;;;;;;3.25;71.94;95479.81;5005732;28;21648;-60
2022/01/28 09:08:47;;;;;;;14.65;7.50;;;;;;;2.16;76.15;95474.75;5000134;28;20479;-60
2022/01/28 09:13:50;;;;;;;14.15;6.97;;;;;;;2.30;76.70;95474.56;5031241;28;20042;-60
2022/01/28 09:16:17;;;;;;;15.48;6.72;;;;;;;2.79;75.40;95474.97;5028150;28;20541;-60
2022/01/28 09:18:45;;;;;;;15.27;6.90;;;;;;;2.71;74.75;95475.03;5030612;28;20095;-60
2022/01/28 09:21:12;;;;;;;18.63;9.05;;;;;;;3.35;72.38;95474.78;5030012;28;20037;-60
2022/01/28 09:23:39;;;;;;;16.52;7.57;;;;;;;3.76;71.33;95478.63;5030616;28;20068;-61
2022/01/28 09:26:06;;;;;;;15.75;7.90;;;;;;;4.07;68.53;95485.50;5029723;28;20049;-61
2022/01/28 09:28:33;;;;;;;11.88;6.05;;;;;;;3.35;69.94;95476.72;5030562;28;20037;-60
2022/01/28 09:31:00;;;;;;;10.60;5.53;;;;;;;2.57;72.50;95486.88;5030203;28;20045;-59
2022/01/28 09:33:27;;;;;;;13.02;5.38;;;;;;;3.78;70.62;95484.50;5029130;28;20113;-60
2022/01/28 09:35:54;;;;;;;11.52;5.70;;;;;;;3.99;67.98;95487.19;5030202;28;20041;-60
2022/01/28 09:38:21;;;;;;;10.95;5.50;;;;;;;4.08;69.39;95497.16;5030476;28;20045;-60
2022/01/28 09:40:49;;;;;;;10.57;5.55;;;;;;;3.80;67.47;95493.13;5030214;28;20033;-61
2022/01/28 09:43:16;;;;;;;9.83;5.00;;;;;;;3.82;68.13;95503.63;5030024;28;20049;-60
2022/01/28 09:45:47;;;;;;;12.88;5.55;;;;;;;3.73;68.66;95500.22;5030124;28;20041;-59
2022/01/28 09:48:17;;;;;;;10.60;5.63;;;;;;;3.33;69.75;95500.66;5029716;28;20045;-61
2022/01/28 09:50:46;;;;;;;10.23;5.20;;;;;;;3.93;69.08;95501.31;5029848;28;20038;-60
2022/01/28 09:53:14;;;;;;;14.40;5.65;;;;;;;4.17;67.76;95501.38;5029348;28;20052;-59
2022/01/28 09:55:45;;;;;;;11.60;5.30;;;;;;;4.47;65.73;95505.88;5028780;28;20041;-60
2022/01/28 09:58:12;;;;;;;13.48;5.85;;;;;;;4.80;64.90;95508.50;5029563;28;20525;-60
2022/01/28 10:00:39;;;;;;;11.68;6.28;;;;;;;4.34;66.55;95507.75;5021985;28;20045;-61
2022/01/28 10:03:08;;;;;;;11.15;5.97;;;;;;;4.49;66.59;95509.06;5009485;28;20095;-60
2022/01/28 10:05:41;;;;;;;17.15;9.23;;;;;;;4.00;67.16;95510.50;5008679;28;20042;-60
2022/01/28 10:08:13;;;;;;;11.40;6.30;;;;;;;4.48;67.46;95516.41;5009570;28;20092;-60
2022/01/28 10:11:03;;;;;;;12.38;5.53;;;;;;;5.36;63.75;95521.53;5029263;28;20041;-60
2022/01/28 10:13:47;;;;;;;9.07;4.68;;;;;;;4.79;63.95;95517.81;5028788;28;20640;-60
2022/01/28 10:16:28;;;;;;;14.73;7.60;;;;;;;3.82;66.69;95509.06;5029110;28;20158;-61
2022/01/28 10:18:55;;;;;;;12.38;6.22;;;;;;;3.71;66.93;95502.47;5029316;28;20052;-60
2022/01/28 10:21:30;;;;;;;11.63;6.63;;;;;;;3.60;67.85;95504.75;5029700;28;20047;-60
2022/01/28 10:24:17;;;;;;;11.02;5.22;;;;;;;3.05;69.56;95516.66;5029042;28;20051;-60
2022/01/28 10:26:49;;;;;;;10.05;5.10;;;;;;;2.95;70.60;95506.97;5028002;28;20053;-60
2022/01/28 10:29:28;;;;;;;9.00;4.88;;;;;;;2.90;70.67;95504.47;5029076;28;20038;-60
2022/01/28 10:31:58;;;;;;;11.90;5.07;;;;;;;2.51;72.33;95514.50;5029160;28;20041;-60
2022/01/28 10:34:26;;;;;;;8.97;4.60;;;;;;;2.71;70.84;95511.06;5029538;28;20043;-59
2022/01/28 10:37:28;;;;;;;9.93;4.40;;;;;;;3.34;69.15;95511.19;5028659;28;20038;-56
2022/01/28 10:40:09;;;;;;;10.55;5.10;;;;;;;3.82;66.89;95508.25;5006196;28;20094;-59
2022/01/28 10:42:43;;;;;;;12.20;5.60;;;;;;;4.37;65.94;95504.38;5028867;28;20049;-59
2022/01/28 10:45:17;;;;;;;10.40;4.53;;;;;;;5.47;60.77;95513.69;5028278;28;20050;-59
2022/01/28 10:47:49;;;;;;;10.43;4.90;;;;;;;6.55;59.30;95498.41;5028677;28;20052;-59
2022/01/28 10:50:16;;;;;;;10.85;5.30;;;;;;;7.37;56.63;95505.06;5028477;28;20052;-59
2022/01/28 10:52:43;;;;;;;8.70;4.30;;;;;;;10.27;49.13;95498.22;5028639;28;20126;-60
2022/01/28 10:55:18;;;;;;;6.80;3.90;;;;;;;11.71;44.25;95488.47;5028273;28;20049;-60
2022/01/28 10:57:59;;;;;;;7.43;3.90;;;;;;;10.65;46.34;95492.78;5028510;28;20045;-59
2022/01/28 11:00:31;;;;;;;6.90;3.90;;;;;;;9.28;47.86;95488.31;5027401;28;21508;-59
2022/01/28 11:03:00;;;;;;;7.88;4.18;;;;;;;8.93;48.42;95483.06;5028078;28;20041;-59
2022/01/28 11:05:29;;;;;;;8.95;4.47;;;;;;;8.03;52.04;95484.19;5028719;28;20401;-60
2022/01/28 11:08:00;;;;;;;8.70;4.70;;;;;;;8.17;52.06;95480.94;5027811;28;20041;-59
2022/01/28 11:10:27;;;;;;;8.20;4.45;;;;;;;8.78;51.07;95480.09;5009548;28;20042;-59
2022/01/28 11:12:56;;;;;;;10.33;4.27;;;;;;;12.14;43.30;95475.75;5008480;28;20049;-60
2022/01/28 11:15:24;;;;;;;8.65;4.28;;;;;;;12.86;41.74;95472.38;5008162;28;20058;-59
2022/01/28 11:17:52;;;;;;;9.15;3.90;;;;;;;13.82;37.79;95476.28;5000523;28;20057;-60
2022/01/28 11:20:22;;;;;;;10.90;4.53;;;;;;;13.19;38.68;95473.97;5008460;28;20552;-60
2022/01/28 11:22:58;;;;;;;20.75;4.50;;;;;;;11.40;41.93;95472.19;5008796;28;20048;-59
2022/01/28 11:25:35;;;;;;;8.43;4.23;;;;;;;9.55;44.86;95482.84;5007599;28;20774;-61
2022/01/28 11:28:07;;;;;;;18.83;5.13;;;;;;;11.06;43.77;95479.03;5007865;28;20149;-60
2022/01/28 11:30:35;;;;;;;13.55;4.43;;;;;;;11.74;41.45;95477.50;5008238;28;20042;-60
2022/01/28 11:33:08;;;;;;;10.23;4.43;;;;;;;13.76;37.47;95475.88;5008063;28;20061;-60
2022/01/28 11:35:41;;;;;;;13.88;4.32;;;;;;;14.97;35.19;95473.78;5008508;28;20049;-60
2022/01/28 11:38:26;;;;;;;15.40;4.50;;;;;;;13.31;37.29;95470.06;5008070;28;20068;-60
2022/01/28 11:41:00;;;;;;;8.45;3.88;;;;;;;12.39;39.13;95475.84;5007657;28;20052;-60
2022/01/28 11:43:28;;;;;;;9.68;4.20;;;;;;;11.38;41.18;95465.50;5007233;28;20096;-60
2022/01/28 11:46:05;;;;;;;7.30;3.97;;;;;;;12.47;39.01;95475.84;5007273;28;20486;-60
2022/01/28 11:49:02;;;;;;;11.45;3.15;;;;;;;12.81;37.32;95462.53;5008541;28;20042;-60
2022/01/28 11:51:38;;;;;;;6.43;3.37;;;;;;;10.63;40.89;95451.97;5027021;28;20048;-61
2022/01/28 11:54:10;;;;;;;11.55;3.97;;;;;;;10.05;43.04;95466.25;5010517;28;20052;-60
2022/01/28 11:56:55;;;;;;;7.05;3.40;;;;;;;10.68;40.68;95459.06;5012379;28;20499;-61
2022/01/28 11:59:26;;;;;;;9.60;3.08;;;;;;;13.11;37.64;95459.41;5010299;28;20733;-60
2022/01/28 12:01:52;;;;;;;9.95;3.15;;;;;;;14.22;34.44;95455.63;5011568;28;20095;-60
2022/01/28 12:04:35;;;;;;;6.53;3.10;;;;;;;12.51;36.67;95441.63;5012721;28;20056;-61
2022/01/28 12:07:06;;;;;;;6.47;3.00;;;;;;;11.39;38.65;95448.66;5012001;28;20038;-60
2022/01/28 12:09:35;;;;;;;6.78;3.40;;;;;;;10.38;40.82;95455.28;5022219;28;20053;-60
2022/01/28 12:12:03;;;;;;;15.32;3.63;;;;;;;9.13;43.01;95451.69;5031660;28;20555;-60
2022/01/28 12:15:23;;;;;;;10.65;4.20;;;;;;;9.07;43.88;95446.91;5031816;28;20045;-61
2022/01/28 12:17:44;;;;;;;9.23;2.83;;;;;;;7.74;46.63;95445.34;5027456;28;20559;-59
2022/01/28 12:20:46;;;;;;;8.77;3.80;;;;;;;7.81;47.04;95441.97;5030868;28;20045;-60
2022/01/28 12:23:13;;;;;;;11.85;4.40;;;;;;;8.42;46.75;95437.66;5030950;28;20053;-61
2022/01/28 12:25:39;;;;;;;9.05;3.03;;;;;;;8.28;45.92;95440.91;5031283;28;20029;-60
2022/01/28 12:28:22;;;;;;;8.93;2.90;;;;;;;7.47;46.98;95443.63;5031188;28;20057;-60
2022/01/28 12:31:01;;;;;;;6.57;2.80;;;;;;;7.25;48.03;95451.34;5031478;28;20041;-60
2022/01/28 12:33:31;;;;;;;7.75;2.83;;;;;;;6.65;48.45;95424.22;5030415;28;20052;-60
2022/01/28 12:36:01;;;;;;;10.48;3.00;;;;;;;6.40;49.23;95440.78;5029370;28;20156;-60
2022/01/28 12:38:31;;;;;;;9.20;2.72;;;;;;;6.27;49.98;95447.44;5031509;28;20048;-59
2022/01/28 12:41:08;;;;;;;6.53;2.63;;;;;;;5.65;50.65;95446.13;5030810;28;20042;-59
2022/01/28 12:43:37;;;;;;;9.77;3.00;;;;;;;5.71;51.36;95439.28;5031459;28;20052;-59
2022/01/28 12:46:10;;;;;;;5.88;2.70;;;;;;;5.49;50.97;95446.06;5030656;28;20056;-59
2022/01/28 12:48:54;;;;;;;9.38;3.70;;;;;;;5.23;52.55;95432.84;5013178;28;20044;-60
2022/01/28 12:51:22;;;;;;;6.38;2.50;;;;;;;5.55;50.35;95418.25;5028847;28;20259;-59
2022/01/28 12:53:54;;;;;;;7.38;2.90;;;;;;;5.45;50.68;95417.94;5030540;28;20091;-59
2022/01/28 12:56:40;;;;;;;4.90;2.43;;;;;;;5.13;51.37;95415.88;5030250;28;21694;-64
2022/01/28 12:59:08;;;;;;;5.38;2.53;;;;;;;4.84;52.53;95416.94;5030849;28;20056;-59
2022/01/28 13:01:35;;;;;;;8.80;2.60;;;;;;;4.88;51.98;95419.78;5029739;28;20064;-59
2022/01/28 13:04:12;;;;;;;5.53;2.20;;;;;;;5.04;51.40;95411.69;5030510;28;20401;-59
2022/01/28 13:06:53;;;;;;;9.63;2.90;;;;;;;4.86;51.47;95422.03;5029232;28;20048;-60
2022/01/28 13:09:23;;;;;;;6.63;2.50;;;;;;;5.43;51.33;95401.94;5021342;28;20718;-59
2022/01/28 13:11:57;;;;;;;4.57;1.95;;;;;;;4.85;49.65;95399.50;5010980;28;20091;-60
2022/01/28 13:14:26;;;;;;;8.57;3.03;;;;;;;4.67;52.65;95396.22;5008699;28;20402;-60
2022/01/28 13:16:54;;;;;;;6.32;2.45;;;;;;;4.88;51.85;95398.00;5009969;28;20069;-60
2022/01/28 13:19:21;;;;;;;5.18;2.30;;;;;;;5.44;50.47;95398.09;5010786;28;20042;-59